createdAt,value
2018-10-06T00:00:24.006Z,12.40
2018-10-06T00:02:57.156Z,12.40
2018-10-06T00:05:29.233Z,12.40
2018-10-06T00:07:59.826Z,12.40
2018-10-06T00:10:30.256Z,12.40
2018-10-06T00:13:01.046Z,12.40
2018-10-06T00:15:31.306Z,12.30
2018-10-06T00:18:01.857Z,12.30
2018-10-06T00:20:32.396Z,12.40
2018-10-06T00:23:06.106Z,12.30
2018-10-06T00:25:36.986Z,12.20
2018-10-06T00:28:08.567Z,12.20
2018-10-06T00:30:38.696Z,12.20
2018-10-06T00:33:11.086Z,12.10
2018-10-06T00:35:41.157Z,12.10
2018-10-06T00:38:13.017Z,12.10
2018-10-06T00:40:45.486Z,12.00
2018-10-06T00:43:18.796Z,12.00
2018-10-06T00:45:50.129Z,12.00
2018-10-06T00:48:20.231Z,12.00
2018-10-06T00:50:51.659Z,12.00
2018-10-06T00:53:23.181Z,11.90
2018-10-06T00:55:59.191Z,11.90
2018-10-06T00:58:30.699Z,11.90
2018-10-06T01:01:00.888Z,11.90
2018-10-06T01:03:38.466Z,11.90
2018-10-06T01:06:10.107Z,11.90
2018-10-06T01:08:40.468Z,11.90
2018-10-06T01:11:11.787Z,11.90
2018-10-06T01:13:50.707Z,11.80
2018-10-06T01:16:22.047Z,11.80
2018-10-06T01:18:53.527Z,11.80
2018-10-06T01:21:24.837Z,11.80
2018-10-06T01:23:56.578Z,11.90
2018-10-06T01:26:35.607Z,11.90
2018-10-06T01:29:06.108Z,11.90
2018-10-06T01:31:37.846Z,11.90
2018-10-06T01:34:17.693Z,11.80
2018-10-06T01:36:49.904Z,11.90
2018-10-06T01:39:22.023Z,11.80
2018-10-06T01:41:53.756Z,11.80
2018-10-06T01:44:23.880Z,11.90
2018-10-06T01:46:55.399Z,11.80
2018-10-06T01:49:27.210Z,11.80
2018-10-06T01:51:58.526Z,11.80
2018-10-06T01:54:37.412Z,11.80
2018-10-06T01:57:08.923Z,11.80
2018-10-06T01:59:40.993Z,11.70
2018-10-06T02:02:10.883Z,11.70
2018-10-06T02:04:42.123Z,11.70
2018-10-06T02:07:20.894Z,11.70
2018-10-06T02:09:52.263Z,11.60
2018-10-06T02:12:23.324Z,11.60
2018-10-06T02:14:54.790Z,11.60
2018-10-06T02:17:26.244Z,11.60
2018-10-06T02:19:57.924Z,11.60
2018-10-06T02:22:29.484Z,11.60
2018-10-06T02:24:59.593Z,11.70
2018-10-06T02:27:31.174Z,11.70
2018-10-06T02:30:10.123Z,11.60
2018-10-06T02:32:41.592Z,11.60
2018-10-06T02:35:11.902Z,11.60
2018-10-06T02:37:49.383Z,11.50
2018-10-06T02:40:20.958Z,11.60
2018-10-06T02:42:52.243Z,11.60
2018-10-06T02:45:27.863Z,11.70
2018-10-06T02:48:05.354Z,11.60
2018-10-06T02:50:37.055Z,11.60
2018-10-06T02:53:08.364Z,11.60
2018-10-06T02:55:40.273Z,11.60
2018-10-06T02:58:12.132Z,11.60
2018-10-06T03:00:42.156Z,11.60
2018-10-06T03:03:12.141Z,11.50
2018-10-06T03:05:44.130Z,11.50
2018-10-06T03:08:14.216Z,11.60
2018-10-06T03:10:45.109Z,11.60
2018-10-06T03:13:16.865Z,11.60
2018-10-06T03:15:48.554Z,11.60
2018-10-06T03:18:26.384Z,11.50
2018-10-06T03:21:02.917Z,11.50
2018-10-06T03:23:42.117Z,11.50
2018-10-06T03:26:21.374Z,11.50
2018-10-06T03:28:53.765Z,11.50
2018-10-06T03:31:25.253Z,11.50
2018-10-06T03:33:56.865Z,11.50
2018-10-06T03:36:28.204Z,11.50
2018-10-06T03:38:59.488Z,11.50
2018-10-06T03:41:38.870Z,11.50
2018-10-06T03:44:10.172Z,11.50
2018-10-06T03:46:41.890Z,11.50
2018-10-06T03:49:16.600Z,11.50
2018-10-06T03:51:55.672Z,11.50
2018-10-06T03:54:25.460Z,11.50
2018-10-06T03:57:04.562Z,11.40
2018-10-06T03:59:36.482Z,11.40
2018-10-06T04:02:08.062Z,11.40
2018-10-06T04:04:39.202Z,11.40
2018-10-06T04:07:10.751Z,11.40
2018-10-06T04:09:42.391Z,11.40
2018-10-06T04:12:13.823Z,11.30
2018-10-06T04:14:52.960Z,11.40
2018-10-06T04:17:25.018Z,11.40
2018-10-06T04:19:56.629Z,11.20
2018-10-06T04:22:26.523Z,11.20
2018-10-06T04:24:58.901Z,11.20
2018-10-06T04:27:30.522Z,11.30
2018-10-06T04:30:02.411Z,11.30
2018-10-06T04:32:33.091Z,11.20
2018-10-06T04:35:04.801Z,11.10
2018-10-06T04:37:43.820Z,11.10
2018-10-06T04:40:17.200Z,11.10
2018-10-06T04:42:49.972Z,11.20
2018-10-06T04:45:21.660Z,11.10
2018-10-06T04:47:53.419Z,11.10
2018-10-06T04:50:24.800Z,11.10
2018-10-06T04:52:57.316Z,11.10
2018-10-06T04:55:36.155Z,11.10
2018-10-06T04:58:08.004Z,11.00
2018-10-06T05:00:39.314Z,11.00
2018-10-06T05:03:10.787Z,11.00
2018-10-06T05:05:42.575Z,11.10
2018-10-06T05:08:21.808Z,11.10
2018-10-06T05:10:53.482Z,11.10
2018-10-06T05:13:24.929Z,11.10
2018-10-06T05:16:04.528Z,11.10
2018-10-06T05:18:44.091Z,11.10
2018-10-06T05:21:15.780Z,11.10
2018-10-06T05:23:46.989Z,11.10
2018-10-06T05:26:18.609Z,11.10
2018-10-06T05:28:50.317Z,11.10
2018-10-06T05:31:29.714Z,11.10
2018-10-06T05:34:09.689Z,11.10
2018-10-06T05:36:41.708Z,11.10
2018-10-06T05:39:13.347Z,11.10
2018-10-06T05:41:47.438Z,11.10
2018-10-06T05:44:17.397Z,11.10
2018-10-06T05:46:49.204Z,11.10
2018-10-06T05:49:21.319Z,11.20
2018-10-06T05:51:52.715Z,11.20
2018-10-06T05:54:31.232Z,11.30
2018-10-06T05:57:03.169Z,11.30
2018-10-06T05:59:37.870Z,11.40
2018-10-06T06:02:09.040Z,11.50
2018-10-06T06:04:48.643Z,11.60
2018-10-06T06:07:20.212Z,11.60
2018-10-06T06:09:50.690Z,11.60
2018-10-06T06:12:21.897Z,11.70
2018-10-06T06:14:52.257Z,11.70
2018-10-06T06:17:22.498Z,11.80
2018-10-06T06:19:55.147Z,11.90
2018-10-06T06:22:27.266Z,11.90
2018-10-06T06:24:58.116Z,12.00
2018-10-06T06:27:30.416Z,12.20
2018-10-06T06:30:02.327Z,12.30
2018-10-06T06:32:34.047Z,12.40
2018-10-06T06:35:06.327Z,12.50
2018-10-06T06:37:36.747Z,12.50
2018-10-06T06:40:09.196Z,12.60
2018-10-06T06:42:39.428Z,12.60
2018-10-06T06:45:11.732Z,12.70
2018-10-06T06:47:43.339Z,12.80
2018-10-06T06:50:13.159Z,13.00
2018-10-06T06:52:44.254Z,13.30
2018-10-06T06:55:15.869Z,14.00
2018-10-06T06:57:47.835Z,15.00
2018-10-06T07:00:17.760Z,15.50
2018-10-06T07:02:48.900Z,15.50
2018-10-06T07:05:28.133Z,15.50
2018-10-06T07:08:00.003Z,15.90
2018-10-06T07:10:29.987Z,16.10
2018-10-06T07:13:01.143Z,16.10
2018-10-06T07:15:32.456Z,15.90
2018-10-06T07:18:03.911Z,15.70
2018-10-06T07:20:35.265Z,15.80
2018-10-06T07:23:07.291Z,15.90
2018-10-06T07:25:37.630Z,15.80
2018-10-06T07:28:07.900Z,15.60
2018-10-06T07:30:38.398Z,15.50
2018-10-06T07:33:10.257Z,15.30
2018-10-06T07:35:41.967Z,15.20
2018-10-06T07:38:13.321Z,15.20
2018-10-06T07:40:44.318Z,15.20
2018-10-06T07:43:14.367Z,15.20
2018-10-06T07:45:44.487Z,15.20
2018-10-06T07:48:16.218Z,15.20
2018-10-06T07:50:48.709Z,15.10
2018-10-06T07:53:20.058Z,15.10
2018-10-06T07:55:52.244Z,15.10
2018-10-06T07:58:31.516Z,15.10
2018-10-06T08:01:10.970Z,15.00
2018-10-06T08:03:42.040Z,15.00
2018-10-06T08:06:15.634Z,15.10
2018-10-06T08:08:47.120Z,15.10
2018-10-06T08:11:17.249Z,15.00
2018-10-06T08:13:47.189Z,15.00
2018-10-06T08:16:18.820Z,15.00
2018-10-06T08:18:50.219Z,15.00
2018-10-06T08:21:21.558Z,15.10
2018-10-06T08:23:52.921Z,15.10
2018-10-06T08:26:23.827Z,15.20
2018-10-06T08:28:56.377Z,15.30
2018-10-06T08:31:28.018Z,15.40
2018-10-06T08:33:59.937Z,15.70
2018-10-06T08:36:31.897Z,16.00
2018-10-06T08:39:06.268Z,16.40
2018-10-06T08:41:40.217Z,16.60
2018-10-06T08:44:23.670Z,16.80
2018-10-06T08:47:10.819Z,16.70
2018-10-06T08:50:14.909Z,16.70
2018-10-06T08:53:27.219Z,16.60
2018-10-06T09:03:03.835Z,16.50
2018-10-06T09:12:49.015Z,16.70
2018-10-06T09:15:20.844Z,17.00
2018-10-06T09:17:55.488Z,17.30
2018-10-06T09:20:27.485Z,17.60
2018-10-06T09:23:00.575Z,17.80
2018-10-06T09:25:40.417Z,18.10
2018-10-06T09:28:11.146Z,18.30
2018-10-06T09:30:46.800Z,18.50
2018-10-06T09:33:25.702Z,18.80
2018-10-06T09:35:55.922Z,19.10
2018-10-06T09:38:27.291Z,19.20
2018-10-06T09:40:59.250Z,19.40
2018-10-06T09:43:30.881Z,19.70
2018-10-06T09:46:07.363Z,19.70
2018-10-06T09:48:46.521Z,19.80
2018-10-06T09:51:26.084Z,19.80
2018-10-06T09:54:05.054Z,19.70
2018-10-06T09:56:41.219Z,19.60
2018-10-06T09:59:17.947Z,19.60
2018-10-06T10:03:02.741Z,19.50
2018-10-06T10:05:46.715Z,19.50
2018-10-06T10:08:22.924Z,19.50
2018-10-06T10:11:00.670Z,19.50
2018-10-06T10:13:40.036Z,19.50
2018-10-06T10:16:17.048Z,19.60
2018-10-06T10:18:57.369Z,19.60
2018-10-06T10:21:33.784Z,19.60
2018-10-06T10:24:08.630Z,19.60
2018-10-06T10:26:46.163Z,19.70
2018-10-06T10:29:21.425Z,19.70
2018-10-06T10:31:57.613Z,19.80
2018-10-06T10:34:30.652Z,19.80
2018-10-06T10:37:03.402Z,19.70
2018-10-06T10:39:41.304Z,19.70
2018-10-06T10:42:19.157Z,19.60
2018-10-06T10:44:56.788Z,19.50
2018-10-06T10:47:30.188Z,19.40
2018-10-06T10:50:06.679Z,19.40
2018-10-06T10:52:40.138Z,19.40
2018-10-06T10:55:16.403Z,19.40
2018-10-06T10:57:49.110Z,19.40
2018-10-06T11:00:22.832Z,19.30
2018-10-06T11:02:57.659Z,19.30
2018-10-06T11:05:33.231Z,19.20
2018-10-06T11:08:12.570Z,19.20
2018-10-06T11:10:53.451Z,19.30
2018-10-06T11:13:30.667Z,19.30
2018-10-06T11:16:06.852Z,19.30
2018-10-06T11:18:43.976Z,19.30
2018-10-06T11:21:19.387Z,19.40
2018-10-06T11:23:53.617Z,19.40
2018-10-06T11:26:27.628Z,19.40
2018-10-06T11:28:59.935Z,19.40
2018-10-06T11:31:35.010Z,19.50
2018-10-06T11:34:07.939Z,19.50
2018-10-06T11:36:49.819Z,19.50
2018-10-06T11:39:29.638Z,19.40
2018-10-06T11:42:09.460Z,19.40
2018-10-06T11:44:51.340Z,19.40
2018-10-06T11:47:28.799Z,19.30
2018-10-06T11:51:09.168Z,19.30
2018-10-06T11:53:49.593Z,19.40
2018-10-06T11:56:30.134Z,19.50
2018-10-06T11:59:12.180Z,19.50
2018-10-06T12:01:58.442Z,19.60
2018-10-06T12:04:35.664Z,19.60
2018-10-06T12:07:14.748Z,19.70
2018-10-06T12:10:00.187Z,19.80
2018-10-06T12:12:33.257Z,19.80
2018-10-06T12:15:07.617Z,19.90
2018-10-06T12:17:48.898Z,20.00
2018-10-06T12:20:29.424Z,20.00
2018-10-06T12:23:15.999Z,20.20
2018-10-06T12:25:56.299Z,20.30
2018-10-06T12:28:35.639Z,20.40
2018-10-06T12:31:17.935Z,20.60
2018-10-06T12:33:57.153Z,20.60
2018-10-06T12:36:37.680Z,20.70
2018-10-06T12:39:13.401Z,20.80
2018-10-06T12:41:55.223Z,20.90
2018-10-06T12:44:36.143Z,20.90
2018-10-06T12:47:19.503Z,21.00
2018-10-06T12:50:02.134Z,21.10
2018-10-06T12:53:47.225Z,21.20
2018-10-06T12:56:27.626Z,21.30
2018-10-06T12:59:02.457Z,21.30
2018-10-06T13:01:43.038Z,21.30
2018-10-06T13:04:15.307Z,21.30
2018-10-06T13:06:46.177Z,21.30
2018-10-06T13:09:16.767Z,21.30
2018-10-06T13:11:47.776Z,21.20
2018-10-06T13:14:23.017Z,21.10
2018-10-06T13:16:53.661Z,21.20
2018-10-06T13:19:24.037Z,21.20
2018-10-06T13:21:55.488Z,21.20
2018-10-06T13:24:27.908Z,21.10
2018-10-06T13:26:57.979Z,21.10
2018-10-06T13:29:30.784Z,21.10
2018-10-06T13:32:02.001Z,21.10
2018-10-06T13:34:34.568Z,21.10
2018-10-06T13:37:06.347Z,21.10
2018-10-06T13:39:40.248Z,21.10
2018-10-06T13:42:11.788Z,21.00
2018-10-06T13:44:43.738Z,21.00
2018-10-06T13:47:22.766Z,21.00
2018-10-06T13:49:56.585Z,20.90
2018-10-06T13:52:36.481Z,20.90
2018-10-06T13:55:15.452Z,20.80
2018-10-06T13:58:03.776Z,20.80
2018-10-06T14:00:36.115Z,20.90
2018-10-06T14:03:07.815Z,20.90
2018-10-06T14:08:54.015Z,20.90
2018-10-06T14:11:25.788Z,20.90
2018-10-06T14:13:57.895Z,20.90
2018-10-06T14:16:29.376Z,20.90
2018-10-06T14:19:01.746Z,20.90
2018-10-06T14:21:37.395Z,20.90
2018-10-06T14:24:17.141Z,20.80
2018-10-06T14:26:48.950Z,20.80
2018-10-06T14:29:21.342Z,20.80
2018-10-06T14:31:53.059Z,20.80
2018-10-06T14:34:23.846Z,20.70
2018-10-06T14:36:57.634Z,20.60
2018-10-06T14:39:38.695Z,20.60
2018-10-06T14:42:09.438Z,20.60
2018-10-06T14:44:39.634Z,20.60
2018-10-06T14:47:10.138Z,20.60
2018-10-06T14:49:42.351Z,20.60
2018-10-06T14:52:18.626Z,20.60
2018-10-06T14:54:53.223Z,20.60
2018-10-06T14:57:24.931Z,20.60
2018-10-06T15:00:06.251Z,20.60
2018-10-06T15:02:37.792Z,20.50
2018-10-06T15:05:08.710Z,20.50
2018-10-06T15:07:39.232Z,20.40
2018-10-06T15:10:18.605Z,20.40
2018-10-06T15:12:50.266Z,20.30
2018-10-06T15:15:22.296Z,20.20
2018-10-06T15:17:52.736Z,20.20
2018-10-06T15:20:24.285Z,20.10
2018-10-06T15:22:55.306Z,20.00
2018-10-06T15:25:26.936Z,19.90
2018-10-06T15:27:57.701Z,19.80
2018-10-06T15:30:29.400Z,19.80
2018-10-06T15:33:00.751Z,19.80
2018-10-06T15:35:39.885Z,19.80
2018-10-06T15:38:11.507Z,19.80
2018-10-06T15:40:43.399Z,19.70
2018-10-06T15:43:22.368Z,19.70
2018-10-06T15:46:01.806Z,19.70
2018-10-06T15:48:40.948Z,19.60
2018-10-06T15:51:13.169Z,19.60
2018-10-06T15:53:44.238Z,19.50
2018-10-06T15:56:14.522Z,19.50
2018-10-06T15:58:46.277Z,19.40
2018-10-06T16:01:25.440Z,19.40
2018-10-06T16:03:57.260Z,19.40
2018-10-06T16:06:30.211Z,19.40
2018-10-06T16:09:02.431Z,19.30
2018-10-06T16:11:38.842Z,19.30
2018-10-06T16:14:10.611Z,19.20
2018-10-06T16:16:42.772Z,19.20
2018-10-06T16:19:13.364Z,19.10
2018-10-06T16:21:43.873Z,19.00
2018-10-06T16:24:16.191Z,18.90
2018-10-06T16:26:47.651Z,18.90
2018-10-06T16:29:17.865Z,18.80
2018-10-06T16:31:48.235Z,18.80
2018-10-06T16:34:19.455Z,18.70
2018-10-06T16:36:49.633Z,18.70
2018-10-06T16:39:21.484Z,18.60
2018-10-06T16:41:56.704Z,18.50
2018-10-06T16:44:26.654Z,18.40
2018-10-06T16:46:56.777Z,18.40
2018-10-06T16:49:28.265Z,18.30
2018-10-06T16:52:00.275Z,18.30
2018-10-06T16:54:32.098Z,18.30
2018-10-06T16:57:02.474Z,18.20
2018-10-06T16:59:32.637Z,18.10
2018-10-06T17:02:02.696Z,18.10
2018-10-06T17:04:34.515Z,18.00
2018-10-06T17:07:12.091Z,18.00
2018-10-06T17:09:43.009Z,18.00
2018-10-06T17:12:15.028Z,17.90
2018-10-06T17:14:45.009Z,17.90
2018-10-06T17:17:15.148Z,17.80
2018-10-06T17:19:45.821Z,17.80
2018-10-06T17:22:16.209Z,17.70
2018-10-06T17:24:47.559Z,17.70
2018-10-06T17:27:18.178Z,17.60
2018-10-06T17:29:48.787Z,17.60
2018-10-06T17:32:19.416Z,17.50
2018-10-06T17:34:50.728Z,17.50
2018-10-06T17:37:22.384Z,17.40
2018-10-06T17:39:54.278Z,17.40
2018-10-06T17:42:38.161Z,17.40
2018-10-06T17:45:18.860Z,17.30
2018-10-06T17:47:49.348Z,17.30
2018-10-06T17:50:21.956Z,17.30
2018-10-06T17:52:58.092Z,17.30
2018-10-06T17:55:31.967Z,17.30
2018-10-06T17:58:02.138Z,17.30
2018-10-06T18:00:39.498Z,17.30
2018-10-06T18:03:16.047Z,17.20
2018-10-06T18:05:51.908Z,17.20
2018-10-06T18:08:26.527Z,17.20
2018-10-06T18:10:58.347Z,17.20
2018-10-06T18:13:33.728Z,17.10
2018-10-06T18:16:07.207Z,17.10
2018-10-06T18:18:46.690Z,17.10
2018-10-06T18:21:19.349Z,17.10
2018-10-06T18:23:51.678Z,17.00
2018-10-06T18:26:24.336Z,17.00
2018-10-06T18:30:01.688Z,16.90
2018-10-06T18:32:35.781Z,16.90
2018-10-06T18:35:10.758Z,16.90
2018-10-06T18:37:46.352Z,16.90
2018-10-06T18:40:22.188Z,16.90
2018-10-06T18:42:56.633Z,16.90
2018-10-06T18:45:27.998Z,16.90
2018-10-06T18:47:59.588Z,16.90
2018-10-06T18:50:30.609Z,16.90
2018-10-06T18:53:00.828Z,16.90
2018-10-06T18:55:36.238Z,16.90
2018-10-06T18:58:11.099Z,16.90
2018-10-06T19:00:50.652Z,16.90
2018-10-06T19:03:25.286Z,16.80
2018-10-06T19:06:04.589Z,16.80
2018-10-06T19:08:43.128Z,16.80
2018-10-06T19:11:16.897Z,16.80
2018-10-06T19:14:02.492Z,16.80
2018-10-06T19:16:37.349Z,16.80
2018-10-06T19:19:16.420Z,16.70
2018-10-06T19:21:47.227Z,16.70
2018-10-06T19:24:19.637Z,16.80
2018-10-06T19:26:56.791Z,16.80
2018-10-06T19:29:35.772Z,16.70
2018-10-06T19:32:10.351Z,16.70
2018-10-06T19:34:48.879Z,16.70
2018-10-06T19:37:22.129Z,16.70
2018-10-06T19:39:59.710Z,16.70
2018-10-06T19:45:43.293Z,16.70
2018-10-06T19:48:28.949Z,16.70
2018-10-06T19:51:12.348Z,16.70
2018-10-06T19:53:55.489Z,16.70
2018-10-06T19:56:32.140Z,16.60
2018-10-06T19:59:09.960Z,16.60
2018-10-06T20:01:41.938Z,16.60
2018-10-06T20:04:13.374Z,16.60
2018-10-06T20:06:44.509Z,16.60
2018-10-06T20:09:14.890Z,16.60
2018-10-06T20:11:45.029Z,16.60
2018-10-06T20:14:16.300Z,16.60
2018-10-06T20:16:46.799Z,16.50
2018-10-06T20:19:17.669Z,16.60
2018-10-06T20:21:47.950Z,16.50
2018-10-06T20:24:18.009Z,16.50
2018-10-06T20:26:48.263Z,16.50
2018-10-06T20:29:18.898Z,16.50
2018-10-06T20:31:49.790Z,16.50
2018-10-06T20:34:21.088Z,16.50
2018-10-06T20:36:52.609Z,16.50
2018-10-06T20:39:24.188Z,16.50
2018-10-06T20:41:58.009Z,16.50
2018-10-06T20:44:32.941Z,16.50
2018-10-06T20:47:09.882Z,16.50
2018-10-06T20:49:41.868Z,16.50
2018-10-06T20:52:15.579Z,16.50
2018-10-06T20:54:53.718Z,16.40
2018-10-06T20:57:29.139Z,16.40
2018-10-06T21:00:02.530Z,16.40
2018-10-06T21:02:38.488Z,16.30
2018-10-06T21:05:11.365Z,16.30
2018-10-06T21:07:48.339Z,16.30
2018-10-06T21:10:25.699Z,16.30
2018-10-06T21:13:07.449Z,16.30
2018-10-06T21:15:40.718Z,16.30
2018-10-06T21:18:16.276Z,16.20
2018-10-06T21:20:49.552Z,16.20
2018-10-06T21:23:22.259Z,16.20
2018-10-06T21:25:52.639Z,16.20
2018-10-06T21:28:23.021Z,16.20
2018-10-06T21:30:54.640Z,16.20
2018-10-06T21:33:24.540Z,16.20
2018-10-06T21:35:56.774Z,16.20
2018-10-06T21:38:26.819Z,16.20
2018-10-06T21:41:01.973Z,16.20
2018-10-06T21:43:33.639Z,16.20
2018-10-06T21:46:07.059Z,16.20
2018-10-06T21:48:41.059Z,16.20
2018-10-06T21:51:18.336Z,16.10
2018-10-06T21:53:48.936Z,16.10
2018-10-06T21:56:21.069Z,16.20
2018-10-06T21:58:52.789Z,16.10
2018-10-06T22:01:24.498Z,16.10
2018-10-06T22:03:55.570Z,16.10
2018-10-06T22:06:26.979Z,16.10
2018-10-06T22:08:58.788Z,16.10
2018-10-06T22:11:30.939Z,16.10
2018-10-06T22:14:02.098Z,16.10
2018-10-06T22:16:33.798Z,16.20
2018-10-06T22:19:04.868Z,16.20
2018-10-06T22:21:36.438Z,16.20
2018-10-06T22:24:10.548Z,16.20
2018-10-06T22:26:41.618Z,16.20
2018-10-06T22:29:13.077Z,16.20
2018-10-06T22:31:44.899Z,16.10
2018-10-06T22:34:16.493Z,16.10
2018-10-06T22:36:47.652Z,16.10
2018-10-06T22:39:19.353Z,16.10
2018-10-06T22:41:50.601Z,16.10
2018-10-06T22:44:22.482Z,16.10
2018-10-06T22:46:54.122Z,16.10
2018-10-06T22:49:25.892Z,16.10
2018-10-06T22:51:57.071Z,16.10
2018-10-06T22:54:28.541Z,16.10
2018-10-06T22:56:59.017Z,16.10
2018-10-06T22:59:31.021Z,16.10
2018-10-06T23:08:22.160Z,16.10
2018-10-06T23:10:53.341Z,16.10
2018-10-06T23:13:23.121Z,16.10
2018-10-06T23:15:54.762Z,16.10
2018-10-06T23:18:26.102Z,16.10
2018-10-06T23:20:58.069Z,16.10
2018-10-06T23:23:29.471Z,16.00
2018-10-06T23:26:01.247Z,16.00
2018-10-06T23:28:32.972Z,16.00
2018-10-06T23:33:28.927Z,16.00
2018-10-06T23:35:58.847Z,15.90
2018-10-06T23:38:30.646Z,16.00
2018-10-06T23:41:03.007Z,16.00
2018-10-06T23:43:32.897Z,16.00
2018-10-06T23:46:04.623Z,16.00
2018-10-06T23:48:36.617Z,16.00
2018-10-06T23:51:08.076Z,16.00
2018-10-06T23:53:38.487Z,16.00
2018-10-06T23:56:08.617Z,15.90
2018-10-06T23:58:38.879Z,15.90
